createdAt,value
2017-03-20T00:00:09.254Z,68.4
2017-03-20T00:00:23.379Z,68.59
2017-03-20T00:00:37.495Z,68.4
2017-03-20T00:00:51.620Z,68.3
2017-03-20T00:01:05.743Z,68.3
2017-03-20T00:01:19.870Z,68.12
2017-03-20T00:01:34.012Z,68.3
2017-03-20T00:01:48.165Z,67.73
2017-03-20T00:02:02.307Z,67.73
2017-03-20T00:02:16.401Z,68.3
2017-03-20T00:02:30.511Z,67.92
2017-03-20T00:02:44.716Z,68.4
2017-03-20T00:02:58.928Z,68.12
2017-03-20T00:03:12.979Z,68.3
2017-03-20T00:03:27.117Z,68.4
2017-03-20T00:03:41.212Z,68.3
2017-03-20T00:03:55.407Z,67.92
2017-03-20T00:04:09.547Z,67.92
2017-03-20T00:04:23.706Z,68.3
2017-03-20T00:04:37.777Z,68.4
2017-03-20T00:04:51.992Z,68.21
2017-03-20T00:05:06.156Z,68.21
2017-03-20T00:05:20.272Z,68.12
2017-03-20T00:05:34.411Z,68.21
2017-03-20T00:05:48.605Z,68.5
2017-03-20T00:06:02.781Z,68.4
2017-03-20T00:06:16.975Z,68.59
2017-03-20T00:06:31.119Z,68.5
2017-03-20T00:06:45.248Z,68.5
2017-03-20T00:06:59.340Z,68.4
2017-03-20T00:07:13.431Z,68.3
2017-03-20T00:07:27.535Z,68.3
2017-03-20T00:07:41.652Z,68.3
2017-03-20T00:07:55.823Z,68.21
2017-03-20T00:08:09.977Z,68.5
2017-03-20T00:08:24.244Z,68.12
2017-03-20T00:08:38.454Z,67.73
2017-03-20T00:08:52.629Z,68.12
2017-03-20T00:09:06.731Z,68.5
2017-03-20T00:09:20.916Z,68.3
2017-03-20T00:09:35.059Z,68.21
2017-03-20T00:09:49.179Z,68.3
2017-03-20T00:10:03.284Z,68.3
2017-03-20T00:10:17.456Z,68.4
2017-03-20T00:10:31.552Z,68.3
2017-03-20T00:10:45.734Z,68.3
2017-03-20T00:10:59.898Z,68.21
2017-03-20T00:11:14.077Z,68.3
2017-03-20T00:11:28.227Z,68.21
2017-03-20T00:11:42.356Z,68.12
2017-03-20T00:11:56.464Z,68.21
2017-03-20T00:12:10.626Z,68.59
2017-03-20T00:12:25.005Z,68.4
2017-03-20T00:12:39.168Z,68.4
2017-03-20T00:12:53.305Z,68.12
2017-03-20T00:13:07.436Z,68.12
2017-03-20T00:13:21.578Z,68.3
2017-03-20T00:13:35.741Z,68.4
2017-03-20T00:13:49.937Z,68.21
2017-03-20T00:14:04.085Z,68.21
2017-03-20T00:14:18.325Z,67.92
2017-03-20T00:14:32.474Z,68.3
2017-03-20T00:14:46.610Z,68.59
2017-03-20T00:15:00.780Z,68.21
2017-03-20T00:15:14.906Z,68.12
2017-03-20T00:15:29.015Z,68.3
2017-03-20T00:15:43.180Z,68.69
2017-03-20T00:15:57.299Z,68.3
2017-03-20T00:16:11.476Z,68.02
2017-03-20T00:16:25.638Z,68.21
2017-03-20T00:16:39.766Z,68.3
2017-03-20T00:16:53.900Z,68.3
2017-03-20T00:17:08.038Z,68.5
2017-03-20T00:17:22.198Z,68.5
2017-03-20T00:17:36.348Z,68.3
2017-03-20T00:17:50.499Z,68.59
2017-03-20T00:18:04.679Z,68.3
2017-03-20T00:18:18.852Z,68.12
2017-03-20T00:18:32.980Z,68.21
2017-03-20T00:18:47.163Z,68.5
2017-03-20T00:19:01.274Z,68.4
2017-03-20T00:19:15.429Z,68.21
2017-03-20T00:19:29.578Z,68.4
2017-03-20T00:19:43.791Z,68.69
2017-03-20T00:19:57.930Z,69.07
2017-03-20T00:20:12.096Z,68.88
2017-03-20T00:20:26.261Z,68.69
2017-03-20T00:20:40.405Z,69.17
2017-03-20T00:20:54.555Z,69.17
2017-03-20T00:21:08.718Z,68.88
2017-03-20T00:21:23.157Z,68.79
2017-03-20T00:21:37.338Z,68.59
2017-03-20T00:21:51.483Z,68.79
2017-03-20T00:22:05.626Z,69.07
2017-03-20T00:22:19.772Z,68.59
2017-03-20T00:22:33.882Z,68.88
2017-03-20T00:22:48.032Z,68.98
2017-03-20T00:23:02.236Z,69.26
2017-03-20T00:23:16.405Z,69.26
2017-03-20T00:23:30.570Z,69.07
2017-03-20T00:23:44.690Z,69.07
2017-03-20T00:23:58.805Z,69.07
2017-03-20T00:24:12.974Z,69.07
2017-03-20T00:24:27.126Z,69.17
2017-03-20T00:24:41.309Z,69.36
2017-03-20T00:24:55.432Z,69.07
2017-03-20T00:25:09.573Z,69.46
2017-03-20T00:25:23.692Z,68.69
2017-03-20T00:25:37.810Z,69.56
2017-03-20T00:25:51.930Z,69.07
2017-03-20T00:26:06.082Z,68.98
2017-03-20T00:26:20.222Z,69.01
2017-03-20T00:26:34.389Z,69.36
2017-03-20T00:26:48.570Z,69.26
2017-03-20T00:27:02.699Z,69.26
2017-03-20T00:27:16.806Z,68.98
2017-03-20T00:27:31.156Z,69.26
2017-03-20T00:27:45.318Z,69.26
2017-03-20T00:27:59.492Z,69.36
2017-03-20T00:28:13.646Z,69.49
2017-03-20T00:28:27.801Z,69.74
2017-03-20T00:28:42.022Z,69.93
2017-03-20T00:28:56.484Z,69.93
2017-03-20T00:29:10.632Z,70.03
2017-03-20T00:29:24.772Z,70.13
2017-03-20T00:29:38.927Z,70.61
2017-03-20T00:29:53.111Z,70.61
2017-03-20T00:30:07.256Z,70.32
2017-03-20T00:30:21.442Z,70.23
2017-03-20T00:30:35.560Z,70.61
2017-03-20T00:30:49.689Z,70.42
2017-03-20T00:31:03.861Z,70.51
2017-03-20T00:31:17.997Z,70.61
2017-03-20T00:31:32.084Z,70.51
2017-03-20T00:31:46.283Z,70.32
2017-03-20T00:32:00.384Z,70.42
2017-03-20T00:32:14.536Z,70.23
2017-03-20T00:32:28.646Z,70.51
2017-03-20T00:32:42.781Z,70.61
2017-03-20T00:32:56.892Z,70.61
2017-03-20T00:33:11.081Z,70.42
2017-03-20T00:33:25.251Z,70.61
2017-03-20T00:33:39.474Z,70.7
2017-03-20T00:33:53.651Z,70.8
2017-03-20T00:34:07.811Z,70.8
2017-03-20T00:34:22.012Z,70.7
2017-03-20T00:34:36.183Z,70.8
2017-03-20T00:34:50.369Z,70.9
2017-03-20T00:35:04.555Z,70.61
2017-03-20T00:35:18.728Z,70.99
2017-03-20T00:35:32.886Z,70.8
2017-03-20T00:35:47.055Z,70.8
2017-03-20T00:36:01.195Z,70.7
2017-03-20T00:36:15.289Z,70.8
2017-03-20T00:36:29.432Z,70.61
2017-03-20T00:36:43.583Z,70.9
2017-03-20T00:36:57.738Z,70.8
2017-03-20T00:37:12.075Z,70.8
2017-03-20T00:37:26.180Z,70.7
2017-03-20T00:37:40.285Z,70.7
2017-03-20T00:37:54.434Z,71.37
2017-03-20T00:38:08.619Z,71.37
2017-03-20T00:38:22.753Z,71.66
2017-03-20T00:38:36.849Z,71.57
2017-03-20T00:38:51.016Z,71.76
2017-03-20T00:39:05.134Z,71.66
2017-03-20T00:39:19.306Z,72.05
2017-03-20T00:39:33.419Z,72.33
2017-03-20T00:39:47.540Z,72.24
2017-03-20T00:40:01.652Z,72.43
2017-03-20T00:40:15.754Z,72.14
2017-03-20T00:40:29.947Z,72.33
2017-03-20T00:40:44.057Z,72.53
2017-03-20T00:40:58.156Z,72.53
2017-03-20T00:41:12.288Z,72.14
2017-03-20T00:41:26.462Z,72.53
2017-03-20T00:41:40.608Z,72.53
2017-03-20T00:41:54.982Z,72.43
2017-03-20T00:42:09.107Z,72.47
2017-03-20T00:42:23.282Z,72.33
2017-03-20T00:42:37.651Z,72.05
2017-03-20T00:42:51.827Z,72.33
2017-03-20T00:43:05.954Z,72.33
2017-03-20T00:43:20.128Z,72.05
2017-03-20T00:43:34.246Z,72.43
2017-03-20T00:43:48.451Z,72.81
2017-03-20T00:44:02.570Z,72.81
2017-03-20T00:44:16.701Z,72.72
2017-03-20T00:44:30.837Z,73
2017-03-20T00:44:44.974Z,73
2017-03-20T00:44:59.143Z,73
2017-03-20T00:45:13.324Z,72.81
2017-03-20T00:45:27.444Z,72.95
2017-03-20T00:45:41.584Z,72.81
2017-03-20T00:45:55.691Z,72.91
2017-03-20T00:46:09.795Z,73.2
2017-03-20T00:46:23.997Z,73.14
2017-03-20T00:46:38.111Z,73.24
2017-03-20T00:46:52.272Z,73.39
2017-03-20T00:47:06.457Z,73.72
2017-03-20T00:47:20.645Z,73.91
2017-03-20T00:47:34.830Z,73.52
2017-03-20T00:47:48.979Z,74.01
2017-03-20T00:48:03.187Z,74.19
2017-03-20T00:48:17.345Z,73.91
2017-03-20T00:48:31.437Z,74.39
2017-03-20T00:48:45.580Z,74.29
2017-03-20T00:48:59.687Z,74.48
2017-03-20T00:49:13.834Z,74.01
2017-03-20T00:49:27.978Z,74.54
2017-03-20T00:49:42.135Z,73.72
2017-03-20T00:49:56.267Z,74.29
2017-03-20T00:50:10.449Z,74.19
2017-03-20T00:50:24.561Z,73.91
2017-03-20T00:50:38.742Z,74.16
2017-03-20T00:50:52.949Z,73.87
2017-03-20T00:51:07.047Z,74.16
2017-03-20T00:51:21.241Z,74.48
2017-03-20T00:51:35.326Z,74.29
2017-03-20T00:51:49.523Z,74.19
2017-03-20T00:52:03.695Z,74.01
2017-03-20T00:52:17.842Z,74.48
2017-03-20T00:52:31.969Z,74.58
2017-03-20T00:52:46.125Z,74.77
2017-03-20T00:53:00.244Z,74.96
2017-03-20T00:53:14.455Z,75.02
2017-03-20T00:53:28.589Z,74.77
2017-03-20T00:53:42.696Z,74.87
2017-03-20T00:53:56.828Z,74.96
2017-03-20T00:54:10.920Z,75.54
2017-03-20T00:54:25.093Z,75.82
2017-03-20T00:54:39.262Z,75.63
2017-03-20T00:54:53.399Z,75.82
2017-03-20T00:55:07.569Z,75.73
2017-03-20T00:55:21.913Z,75.73
2017-03-20T00:55:36.098Z,75.63
2017-03-20T00:55:50.302Z,75.92
2017-03-20T00:56:04.440Z,75.92
2017-03-20T00:56:18.641Z,75.82
2017-03-20T00:56:32.757Z,75.82
2017-03-20T00:56:46.851Z,75.7
2017-03-20T00:57:01.022Z,75.73
2017-03-20T00:57:15.181Z,75.63
2017-03-20T00:57:29.348Z,76.02
2017-03-20T00:57:43.880Z,76.02
2017-03-20T00:57:58.028Z,75.82
2017-03-20T00:58:12.178Z,76.12
2017-03-20T00:58:26.309Z,75.82
2017-03-20T00:58:40.441Z,76.12
2017-03-20T00:58:54.516Z,75.92
2017-03-20T00:59:08.675Z,76.12
2017-03-20T00:59:22.833Z,75.82
2017-03-20T00:59:36.925Z,75.92
2017-03-20T00:59:51.051Z,75.92
2017-03-20T01:00:05.235Z,75.82
2017-03-20T01:00:19.383Z,75.82
2017-03-20T01:00:33.525Z,76.02
2017-03-20T01:00:47.658Z,76.4
2017-03-20T01:01:01.825Z,76.12
2017-03-20T01:01:15.920Z,75.73
2017-03-20T01:01:30.025Z,75.82
2017-03-20T01:01:44.238Z,75.73
2017-03-20T01:01:58.335Z,76.4
2017-03-20T01:02:12.498Z,76.21
2017-03-20T01:02:26.656Z,76.12
2017-03-20T01:02:40.787Z,76.69
2017-03-20T01:02:54.918Z,76.5
2017-03-20T01:03:09.016Z,77.17
2017-03-20T01:03:23.168Z,76.98
2017-03-20T01:03:37.300Z,77.08
2017-03-20T01:03:51.462Z,76.88
2017-03-20T01:04:05.669Z,76.69
2017-03-20T01:04:19.801Z,76.69
2017-03-20T01:04:33.998Z,76.98
2017-03-20T01:04:48.160Z,76.98
2017-03-20T01:05:02.314Z,76.5
2017-03-20T01:05:16.446Z,76.88
2017-03-20T01:05:30.579Z,76.59
2017-03-20T01:05:44.639Z,76.88
2017-03-20T01:05:58.783Z,76.98
2017-03-20T01:06:12.999Z,76.98
2017-03-20T01:06:27.138Z,77.36
2017-03-20T01:06:41.224Z,77.46
2017-03-20T01:06:55.415Z,77.36
2017-03-20T01:07:09.572Z,77.65
2017-03-20T01:07:23.761Z,77.17
2017-03-20T01:07:37.907Z,77.17
2017-03-20T01:07:52.038Z,77.36
2017-03-20T01:08:06.171Z,77.46
2017-03-20T01:08:20.274Z,77.46
2017-03-20T01:08:34.411Z,77.26
2017-03-20T01:08:48.606Z,77.26
2017-03-20T01:09:02.706Z,77.08
2017-03-20T01:09:16.908Z,77.36
2017-03-20T01:09:31.049Z,77.17
2017-03-20T01:09:45.174Z,77.17
2017-03-20T01:09:59.351Z,77.26
2017-03-20T01:10:13.496Z,77.36
2017-03-20T01:10:27.621Z,77.46
2017-03-20T01:10:41.772Z,77.56
2017-03-20T01:10:55.902Z,77.36
2017-03-20T01:11:10.013Z,77.36
2017-03-20T01:11:24.159Z,77.26
2017-03-20T01:11:38.265Z,77.26
2017-03-20T01:11:52.483Z,77.08
2017-03-20T01:12:06.618Z,77.08
2017-03-20T01:12:20.805Z,77.17
2017-03-20T01:12:35.003Z,76.98
2017-03-20T01:12:49.330Z,77.17
2017-03-20T01:13:03.503Z,77.17
2017-03-20T01:13:17.585Z,77.08
2017-03-20T01:13:31.735Z,76.88
2017-03-20T01:13:45.829Z,77.08
2017-03-20T01:13:59.995Z,76.88
2017-03-20T01:14:14.112Z,77.08
2017-03-20T01:14:28.224Z,77.08
2017-03-20T01:14:42.358Z,77.08
2017-03-20T01:14:56.470Z,77.08
2017-03-20T01:15:10.624Z,77.26
2017-03-20T01:15:24.777Z,77.08
2017-03-20T01:15:38.954Z,76.88
2017-03-20T01:15:53.025Z,77.08
2017-03-20T01:16:07.200Z,77.17
2017-03-20T01:16:21.432Z,77.08
2017-03-20T01:16:35.521Z,76.98
2017-03-20T01:16:49.691Z,77.56
2017-03-20T01:17:03.823Z,77.17
2017-03-20T01:17:17.956Z,77.46
2017-03-20T01:17:32.077Z,77.04
2017-03-20T01:17:46.269Z,76.98
2017-03-20T01:18:00.374Z,76.79
2017-03-20T01:18:14.510Z,77.17
2017-03-20T01:18:28.625Z,77.17
2017-03-20T01:18:42.789Z,77.17
2017-03-20T01:18:56.904Z,76.88
2017-03-20T01:19:11.049Z,77.08
2017-03-20T01:19:25.172Z,76.98
2017-03-20T01:19:39.338Z,76.88
2017-03-20T01:19:53.493Z,76.98
2017-03-20T01:20:07.597Z,77.17
2017-03-20T01:20:21.718Z,76.88
2017-03-20T01:20:35.821Z,77.08
2017-03-20T01:20:50.001Z,77.36
2017-03-20T01:21:04.165Z,77.36
2017-03-20T01:21:18.311Z,77.36
2017-03-20T01:21:32.456Z,77.46
2017-03-20T01:21:46.570Z,77.56
2017-03-20T01:22:00.731Z,77.36
2017-03-20T01:22:14.866Z,77.56
2017-03-20T01:22:29.074Z,77.56
2017-03-20T01:22:43.245Z,77.84
2017-03-20T01:22:57.452Z,77.56
2017-03-20T01:23:11.641Z,77.84
2017-03-20T01:23:25.821Z,77.84
2017-03-20T01:23:39.995Z,77.65
2017-03-20T01:23:54.177Z,77.46
2017-03-20T01:24:08.302Z,77.46
2017-03-20T01:24:22.424Z,77.46
2017-03-20T01:24:36.553Z,77.65
2017-03-20T01:24:50.710Z,77.65
2017-03-20T01:25:04.934Z,77.46
2017-03-20T01:25:19.063Z,77.56
2017-03-20T01:25:33.223Z,77.65
2017-03-20T01:25:47.354Z,77.46
2017-03-20T01:26:01.469Z,77.46
2017-03-20T01:26:15.596Z,77.46
2017-03-20T01:26:29.709Z,77.84
2017-03-20T01:26:43.875Z,77.75
2017-03-20T01:26:58.003Z,77.56
2017-03-20T01:27:12.113Z,77.75
2017-03-20T01:27:26.299Z,78.13
2017-03-20T01:27:40.389Z,78.32
2017-03-20T01:27:54.799Z,78.23
2017-03-20T01:28:08.990Z,78.32
2017-03-20T01:28:23.140Z,78.61
2017-03-20T01:28:37.280Z,78.38
2017-03-20T01:28:51.346Z,78.52
2017-03-20T01:29:05.500Z,78.52
2017-03-20T01:29:19.644Z,78.47
2017-03-20T01:29:33.849Z,77.8
2017-03-20T01:29:48.070Z,78.47
2017-03-20T01:30:02.215Z,77.9
2017-03-20T01:30:16.413Z,78
2017-03-20T01:30:30.603Z,78.47
2017-03-20T01:30:44.758Z,78.28
2017-03-20T01:30:58.928Z,78.19
2017-03-20T01:31:13.138Z,78.19
2017-03-20T01:31:27.307Z,77.71
2017-03-20T01:31:41.473Z,77.51
2017-03-20T01:31:55.591Z,77.61
2017-03-20T01:32:09.757Z,77.8
2017-03-20T01:32:23.949Z,77.71
2017-03-20T01:32:38.096Z,77.51
2017-03-20T01:32:52.323Z,77.61
2017-03-20T01:33:06.687Z,77.71
2017-03-20T01:33:20.807Z,77.8
2017-03-20T01:33:34.958Z,78
2017-03-20T01:33:49.172Z,77.71
2017-03-20T01:34:03.267Z,77.71
2017-03-20T01:34:17.393Z,77.8
2017-03-20T01:34:31.610Z,78.19
2017-03-20T01:34:45.715Z,78.19
2017-03-20T01:34:59.879Z,78.19
2017-03-20T01:35:14.041Z,77.9
2017-03-20T01:35:28.143Z,77.61
2017-03-20T01:35:42.265Z,77.71
2017-03-20T01:35:56.432Z,77.61
2017-03-20T01:36:10.632Z,77.61
2017-03-20T01:36:24.777Z,77.42
2017-03-20T01:36:38.951Z,77.8
2017-03-20T01:36:53.099Z,78.38
2017-03-20T01:37:07.249Z,77.8
2017-03-20T01:37:21.395Z,77.51
2017-03-20T01:37:35.586Z,77.8
2017-03-20T01:37:49.653Z,77.8
2017-03-20T01:38:03.742Z,77.75
2017-03-20T01:38:17.837Z,78
2017-03-20T01:38:32.085Z,77.51
2017-03-20T01:38:46.177Z,77.61
2017-03-20T01:39:00.303Z,77.71
2017-03-20T01:39:14.448Z,78.47
2017-03-20T01:39:28.605Z,78.28
2017-03-20T01:39:42.797Z,78.57
2017-03-20T01:39:56.962Z,78.09
2017-03-20T01:40:11.131Z,78.57
2017-03-20T01:40:25.246Z,78.86
2017-03-20T01:40:39.367Z,78.77
2017-03-20T01:40:53.534Z,78.47
2017-03-20T01:41:07.666Z,79.14
2017-03-20T01:41:21.770Z,78.77
2017-03-20T01:41:35.934Z,78.77
2017-03-20T01:41:50.188Z,79.05
2017-03-20T01:42:04.370Z,79.05
2017-03-20T01:42:18.490Z,78.77
2017-03-20T01:42:32.617Z,78.96
2017-03-20T01:42:46.733Z,78.77
2017-03-20T01:43:01.055Z,78.77
2017-03-20T01:43:15.180Z,78.77
2017-03-20T01:43:29.365Z,79.14
2017-03-20T01:43:43.555Z,79.14
2017-03-20T01:43:57.657Z,79.14
2017-03-20T01:44:11.829Z,79.14
2017-03-20T01:44:25.918Z,79.24
2017-03-20T01:44:40.098Z,79.67
2017-03-20T01:44:54.237Z,80.11
2017-03-20T01:45:08.381Z,79.82
2017-03-20T01:45:22.580Z,79.34
2017-03-20T01:45:36.677Z,79.53
2017-03-20T01:45:50.753Z,79.53
2017-03-20T01:46:04.866Z,79.44
2017-03-20T01:46:19.008Z,79.63
2017-03-20T01:46:33.138Z,79.53
2017-03-20T01:46:47.229Z,79.53
2017-03-20T01:47:01.381Z,79.57
2017-03-20T01:47:15.508Z,80.11
2017-03-20T01:47:29.666Z,79.86
2017-03-20T01:47:43.856Z,79.82
2017-03-20T01:47:57.957Z,79.82
2017-03-20T01:48:12.116Z,79.91
2017-03-20T01:48:26.289Z,79.82
2017-03-20T01:48:40.411Z,79.82
2017-03-20T01:48:54.505Z,79.63
2017-03-20T01:49:08.663Z,79.72
2017-03-20T01:49:22.789Z,79.63
2017-03-20T01:49:36.967Z,79.72
2017-03-20T01:49:51.092Z,79.53
2017-03-20T01:50:05.156Z,80.11
2017-03-20T01:50:19.282Z,79.47
2017-03-20T01:50:33.472Z,79.76
2017-03-20T01:50:47.616Z,79.76
2017-03-20T01:51:01.808Z,79.86
2017-03-20T01:51:15.961Z,79.57
2017-03-20T01:51:30.139Z,80.05
2017-03-20T01:51:44.309Z,80.05
2017-03-20T01:51:58.404Z,80.15
2017-03-20T01:52:12.557Z,80.05
2017-03-20T01:52:26.674Z,80.15
2017-03-20T01:52:40.814Z,80.05
2017-03-20T01:52:54.911Z,79.96
2017-03-20T01:53:09.011Z,80.15
2017-03-20T01:53:23.148Z,80.24
2017-03-20T01:53:37.256Z,79.86
2017-03-20T01:53:51.427Z,80.05
2017-03-20T01:54:05.622Z,80.15
2017-03-20T01:54:19.742Z,80.15
2017-03-20T01:54:33.937Z,80.43
2017-03-20T01:54:48.116Z,80.34
2017-03-20T01:55:02.262Z,80.15
2017-03-20T01:55:16.341Z,80.15
2017-03-20T01:55:30.464Z,80.05
2017-03-20T01:55:44.592Z,80.15
2017-03-20T01:55:58.781Z,79.96
2017-03-20T01:56:12.947Z,80.63
2017-03-20T01:56:27.108Z,80.34
2017-03-20T01:56:41.193Z,80.43
2017-03-20T01:56:55.354Z,80.34
2017-03-20T01:57:09.519Z,80.91
2017-03-20T01:57:23.630Z,80.91
2017-03-20T01:57:37.769Z,81.1
2017-03-20T01:57:51.891Z,81.4
2017-03-20T01:58:06.182Z,81.1
2017-03-20T01:58:20.375Z,80.91
2017-03-20T01:58:34.502Z,80.82
2017-03-20T01:58:48.659Z,81.2
2017-03-20T01:59:02.818Z,81.2
2017-03-20T01:59:16.973Z,81.2
2017-03-20T01:59:31.131Z,80.73
2017-03-20T01:59:45.261Z,80.63
2017-03-20T01:59:59.458Z,80.63
2017-03-20T02:00:13.576Z,81.01
2017-03-20T02:00:27.723Z,81.4
2017-03-20T02:00:41.902Z,81.01
2017-03-20T02:00:56.018Z,81.2
2017-03-20T02:01:10.142Z,81.2
2017-03-20T02:01:24.288Z,81.01
2017-03-20T02:01:38.411Z,81.2
2017-03-20T02:01:52.553Z,81.1
2017-03-20T02:02:06.731Z,81.45
2017-03-20T02:02:20.930Z,81.01
2017-03-20T02:02:35.071Z,81.2
2017-03-20T02:02:49.191Z,81.1
2017-03-20T02:03:03.277Z,81.1
2017-03-20T02:03:17.426Z,81.07
2017-03-20T02:03:31.607Z,80.97
2017-03-20T02:03:45.755Z,81.01
2017-03-20T02:03:59.937Z,80.63
2017-03-20T02:04:14.138Z,80.91
2017-03-20T02:04:28.225Z,81.4
2017-03-20T02:04:42.385Z,81.49
2017-03-20T02:04:56.512Z,81.01
2017-03-20T02:05:10.652Z,81.1
2017-03-20T02:05:24.826Z,81.3
2017-03-20T02:05:39.026Z,81.2
2017-03-20T02:05:53.150Z,81.01
2017-03-20T02:06:07.255Z,81.3
2017-03-20T02:06:21.422Z,81.1
2017-03-20T02:06:35.564Z,81.01
2017-03-20T02:06:49.729Z,81.1
2017-03-20T02:07:03.887Z,81.2
2017-03-20T02:07:18.037Z,81.2
2017-03-20T02:07:32.247Z,81.01
2017-03-20T02:07:46.422Z,81.01
2017-03-20T02:08:00.612Z,81.1
2017-03-20T02:08:14.754Z,81.01
2017-03-20T02:08:28.871Z,80.82
2017-03-20T02:08:42.959Z,81.01
2017-03-20T02:08:57.133Z,81.01
2017-03-20T02:09:11.229Z,80.91
2017-03-20T02:09:25.405Z,80.91
2017-03-20T02:09:39.544Z,80.53
2017-03-20T02:09:53.691Z,80.82
2017-03-20T02:10:07.792Z,80.91
2017-03-20T02:10:21.913Z,80.82
2017-03-20T02:10:36.045Z,80.63
2017-03-20T02:10:50.201Z,81.2
2017-03-20T02:11:04.430Z,81.01
2017-03-20T02:11:18.581Z,81.2
2017-03-20T02:11:32.682Z,80.82
2017-03-20T02:11:46.776Z,81.01
2017-03-20T02:12:00.944Z,81.01
2017-03-20T02:12:15.126Z,80.53
2017-03-20T02:12:29.342Z,81.01
2017-03-20T02:12:43.516Z,81.2
2017-03-20T02:12:57.684Z,81.1
2017-03-20T02:13:11.900Z,81.2
2017-03-20T02:13:26.259Z,81.1
2017-03-20T02:13:40.416Z,81.1
2017-03-20T02:13:54.531Z,81.2
2017-03-20T02:14:08.759Z,81.1
2017-03-20T02:14:22.929Z,80.91
2017-03-20T02:14:37.093Z,81.1
2017-03-20T02:14:51.245Z,81.1
2017-03-20T02:15:05.397Z,80.82
2017-03-20T02:15:19.524Z,81.3
2017-03-20T02:15:33.708Z,81.4
2017-03-20T02:15:47.847Z,81.2
2017-03-20T02:16:02.006Z,81.3
2017-03-20T02:16:16.106Z,81.78
2017-03-20T02:16:30.189Z,81.49
2017-03-20T02:16:44.427Z,81.59
2017-03-20T02:16:58.579Z,81.59
2017-03-20T02:17:12.757Z,81.54
2017-03-20T02:17:26.905Z,81.78
2017-03-20T02:17:41.003Z,81.49
2017-03-20T02:17:55.104Z,81.59
2017-03-20T02:18:09.280Z,81.49
2017-03-20T02:18:23.405Z,81.4
2017-03-20T02:18:37.587Z,81.49
2017-03-20T02:18:51.759Z,81.59
2017-03-20T02:19:05.896Z,81.49
2017-03-20T02:19:20.094Z,81.49
2017-03-20T02:19:34.267Z,81.59
2017-03-20T02:19:48.485Z,81.68
2017-03-20T02:20:02.610Z,81.59
2017-03-20T02:20:16.734Z,81.59
2017-03-20T02:20:30.858Z,81.59
2017-03-20T02:20:44.950Z,81.4
2017-03-20T02:20:59.075Z,81.59
2017-03-20T02:21:13.267Z,81.59
2017-03-20T02:21:27.450Z,81.59
2017-03-20T02:21:41.623Z,81.49
2017-03-20T02:21:55.766Z,81.59
2017-03-20T02:22:09.849Z,81.78
2017-03-20T02:22:23.984Z,81.68
2017-03-20T02:22:38.116Z,81.78
2017-03-20T02:22:52.276Z,81.68
2017-03-20T02:23:06.457Z,81.59
2017-03-20T02:23:20.563Z,81.87
2017-03-20T02:23:34.652Z,81.87
2017-03-20T02:23:49.032Z,81.68
2017-03-20T02:24:03.235Z,81.68
2017-03-20T02:24:17.399Z,81.97
2017-03-20T02:24:31.551Z,81.87
2017-03-20T02:24:45.805Z,81.97
2017-03-20T02:24:59.993Z,81.97
2017-03-20T02:25:14.145Z,82.84
2017-03-20T02:25:28.319Z,82.16
2017-03-20T02:25:42.465Z,82.07
2017-03-20T02:25:56.645Z,82.26
2017-03-20T02:26:10.842Z,81.87
2017-03-20T02:26:25.012Z,81.97
2017-03-20T02:26:39.157Z,82.07
2017-03-20T02:26:53.241Z,82.07
2017-03-20T02:27:07.381Z,82.07
2017-03-20T02:27:21.525Z,82.07
2017-03-20T02:27:35.648Z,82.26
2017-03-20T02:27:49.844Z,81.97
2017-03-20T02:28:04.044Z,82.35
2017-03-20T02:28:18.153Z,82.16
2017-03-20T02:28:32.527Z,82.26
2017-03-20T02:28:46.650Z,82.16
2017-03-20T02:29:00.856Z,82.54
2017-03-20T02:29:15.046Z,82.45
2017-03-20T02:29:29.218Z,82.26
2017-03-20T02:29:43.369Z,82.54
2017-03-20T02:29:57.560Z,82.35
2017-03-20T02:30:11.688Z,83.12
2017-03-20T02:30:25.732Z,83.31
2017-03-20T02:30:39.900Z,83.31
2017-03-20T02:30:53.974Z,83.22
2017-03-20T02:31:08.071Z,83.31
2017-03-20T02:31:22.162Z,83.41
2017-03-20T02:31:36.250Z,83.6
2017-03-20T02:31:50.392Z,83.51
2017-03-20T02:32:04.543Z,83.41
2017-03-20T02:32:18.689Z,83.22
2017-03-20T02:32:32.845Z,83.31
2017-03-20T02:32:47.014Z,83.22
2017-03-20T02:33:01.241Z,83.41
2017-03-20T02:33:15.404Z,83.31
2017-03-20T02:33:29.503Z,83.41
2017-03-20T02:33:43.671Z,83.41
2017-03-20T02:33:57.823Z,83.31
2017-03-20T02:34:11.978Z,83.31
2017-03-20T02:34:26.099Z,83.18
2017-03-20T02:34:40.263Z,83.22
2017-03-20T02:34:54.409Z,83.22
2017-03-20T02:35:08.602Z,83.22
2017-03-20T02:35:22.787Z,83.31
2017-03-20T02:35:36.953Z,83.03
2017-03-20T02:35:51.122Z,83.31
2017-03-20T02:36:05.243Z,83.31
2017-03-20T02:36:19.341Z,83.41
2017-03-20T02:36:33.425Z,83.31
2017-03-20T02:36:47.594Z,83.51
2017-03-20T02:37:01.701Z,83.41
2017-03-20T02:37:15.871Z,83.51
2017-03-20T02:37:29.988Z,83.51
2017-03-20T02:37:44.085Z,83.41
2017-03-20T02:37:58.216Z,83.41
2017-03-20T02:38:12.305Z,83.6
2017-03-20T02:38:26.468Z,83.6
2017-03-20T02:38:40.590Z,83.7
2017-03-20T02:38:54.754Z,83.7
2017-03-20T02:39:08.892Z,83.8
2017-03-20T02:39:23.006Z,83.98
2017-03-20T02:39:37.144Z,83.98
2017-03-20T02:39:51.282Z,83.8
2017-03-20T02:40:05.426Z,83.8
2017-03-20T02:40:19.548Z,84.18
2017-03-20T02:40:33.692Z,84.37
2017-03-20T02:40:47.814Z,84.27
2017-03-20T02:41:01.975Z,84.18
2017-03-20T02:41:16.103Z,84.08
2017-03-20T02:41:30.231Z,84.75
2017-03-20T02:41:44.384Z,84.66
2017-03-20T02:41:58.572Z,84.56
2017-03-20T02:42:12.671Z,84.75
2017-03-20T02:42:26.779Z,84.66
2017-03-20T02:42:40.906Z,84.66
2017-03-20T02:42:55.082Z,85.04
2017-03-20T02:43:09.240Z,84.75
2017-03-20T02:43:23.388Z,84.85
2017-03-20T02:43:37.717Z,85.04
2017-03-20T02:43:51.837Z,84.75
2017-03-20T02:44:05.949Z,85.24
2017-03-20T02:44:20.101Z,85.24
2017-03-20T02:44:34.252Z,85.62
2017-03-20T02:44:48.376Z,85.42
2017-03-20T02:45:02.521Z,85.33
2017-03-20T02:45:16.642Z,86.1
2017-03-20T02:45:30.766Z,85.62
2017-03-20T02:45:45.134Z,85.52
2017-03-20T02:45:59.318Z,85.62
2017-03-20T02:46:13.467Z,85.91
2017-03-20T02:46:27.652Z,86.19
2017-03-20T02:46:41.776Z,85.91
2017-03-20T02:46:55.969Z,85.91
2017-03-20T02:47:10.115Z,85.81
2017-03-20T02:47:24.297Z,85.71
2017-03-20T02:47:38.414Z,86
2017-03-20T02:47:52.581Z,85.81
2017-03-20T02:48:06.847Z,85.91
2017-03-20T02:48:20.970Z,85.91
2017-03-20T02:48:35.121Z,86.29
2017-03-20T02:48:49.265Z,86.58
2017-03-20T02:49:03.375Z,86
2017-03-20T02:49:17.559Z,85.91
2017-03-20T02:49:31.711Z,86.58
2017-03-20T02:49:45.846Z,86.1
2017-03-20T02:50:00.199Z,86.19
2017-03-20T02:50:14.355Z,86
2017-03-20T02:50:28.463Z,86.1
2017-03-20T02:50:42.618Z,86.29
2017-03-20T02:50:56.791Z,86.1
2017-03-20T02:51:10.889Z,86.1
2017-03-20T02:51:24.947Z,86.19
2017-03-20T02:51:39.064Z,86.19
2017-03-20T02:51:53.165Z,85.96
2017-03-20T02:52:07.273Z,86.19
2017-03-20T02:52:21.409Z,86
2017-03-20T02:52:35.567Z,86.34
2017-03-20T02:52:49.779Z,86.25
2017-03-20T02:53:03.942Z,86.15
2017-03-20T02:53:18.112Z,86.29
2017-03-20T02:53:32.261Z,86.05
2017-03-20T02:53:46.429Z,85.91
2017-03-20T02:54:00.582Z,86
2017-03-20T02:54:14.789Z,86.1
2017-03-20T02:54:28.980Z,85.91
2017-03-20T02:54:43.193Z,86.19
2017-03-20T02:54:57.318Z,86
2017-03-20T02:55:11.483Z,86.15
2017-03-20T02:55:25.596Z,86.15
2017-03-20T02:55:39.731Z,85.96
2017-03-20T02:55:53.793Z,86.05
2017-03-20T02:56:07.951Z,86.15
2017-03-20T02:56:22.111Z,85.96
2017-03-20T02:56:36.321Z,86.54
2017-03-20T02:56:50.499Z,86.15
2017-03-20T02:57:04.666Z,86.19
2017-03-20T02:57:18.828Z,86.05
2017-03-20T02:57:32.943Z,85.86
2017-03-20T02:57:47.136Z,86.1
2017-03-20T02:58:01.299Z,86.1
2017-03-20T02:58:15.477Z,86.19
2017-03-20T02:58:29.617Z,86.15
2017-03-20T02:58:44.018Z,86.1
2017-03-20T02:58:58.143Z,86.25
2017-03-20T02:59:12.249Z,86.19
2017-03-20T02:59:26.402Z,86.29
2017-03-20T02:59:40.497Z,86
2017-03-20T02:59:54.660Z,86.1
2017-03-20T03:00:08.803Z,86.1
2017-03-20T03:00:22.986Z,86
2017-03-20T03:00:37.135Z,86.58
2017-03-20T03:00:51.316Z,87.15
2017-03-20T03:01:05.490Z,86.87
2017-03-20T03:01:19.683Z,86.68
2017-03-20T03:01:33.856Z,86.58
2017-03-20T03:01:47.993Z,86.68
2017-03-20T03:02:02.149Z,86.68
2017-03-20T03:02:16.290Z,86.58
2017-03-20T03:02:30.509Z,86.58
2017-03-20T03:02:44.659Z,86.54
2017-03-20T03:02:58.798Z,86.68
2017-03-20T03:03:12.961Z,86.48
2017-03-20T03:03:27.076Z,87.05
2017-03-20T03:03:41.229Z,86.96